Time;durP1;ratioP1;P1;durP2;ratioP2;P2;SDS_P1;SDS_P2;PMS_P1;PMS_P2;Temp;Humidity;BMP_temperature;BMP_pressure;BME280_temperature;BME280_humidity;BME280_pressure;Samples;Min_cycle;Max_cycle;Signal;HPM_P1;HPM_P2
2023/03/08 00:02:01;;;;;;;30.37;15.97;;;;;;;8.48;68.42;93832.25;5032598;28;20214;-80
2023/03/08 00:04:29;;;;;;;32.70;16.90;;;;;;;8.40;70.21;93840.38;5032597;28;20663;-80
2023/03/08 00:06:56;;;;;;;36.37;15.67;;;;;;;8.40;70.38;93850.72;5032822;28;20198;-80
2023/03/08 00:09:22;;;;;;;35.50;16.93;;;;;;;8.34;70.41;93833.50;5031786;28;20199;-80
2023/03/08 00:11:49;;;;;;;29.23;15.37;;;;;;;8.26;71.03;93844.16;5031577;28;20206;-80
2023/03/08 00:14:17;;;;;;;30.67;13.90;;;;;;;8.23;70.77;93841.22;5031445;28;20205;-82
2023/03/08 00:16:44;;;;;;;29.07;14.33;;;;;;;8.25;70.69;93839.22;5032609;28;20597;-81
2023/03/08 00:19:11;;;;;;;27.37;14.43;;;;;;;8.20;71.12;93841.66;5031905;28;20201;-80
2023/03/08 00:21:39;;;;;;;18.83;10.93;;;;;;;8.14;70.56;93838.16;5031488;28;20257;-80
2023/03/08 00:24:06;;;;;;;26.83;13.23;;;;;;;8.11;71.24;93843.78;5032427;28;20191;-80
2023/03/08 00:26:33;;;;;;;28.47;14.93;;;;;;;8.10;71.75;93854.38;5031580;28;20191;-79
2023/03/08 00:28:59;;;;;;;25.33;13.67;;;;;;;8.05;71.51;93836.16;5044873;28;20202;-81
2023/03/08 00:31:26;;;;;;;25.40;14.17;;;;;;;8.10;71.66;93846.59;5034684;28;20248;-80
2023/03/08 00:33:54;;;;;;;27.87;14.20;;;;;;;8.14;71.59;93848.50;5033664;28;20203;-79
2023/03/08 00:36:21;;;;;;;28.67;16.37;;;;;;;8.20;71.66;93849.41;5032316;28;20226;-80
2023/03/08 00:38:50;;;;;;;29.00;15.37;;;;;;;7.95;71.75;93831.50;5032197;28;20198;-81
2023/03/08 00:41:17;;;;;;;32.67;15.33;;;;;;;7.81;73.42;93832.72;5031652;28;20210;-80
2023/03/08 00:43:44;;;;;;;29.97;14.67;;;;;;;7.82;73.02;93834.28;5031732;28;20241;-81
2023/03/08 00:46:11;;;;;;;31.90;14.77;;;;;;;7.82;73.67;93837.66;5031787;28;20186;-81
2023/03/08 00:48:38;;;;;;;24.67;14.77;;;;;;;7.86;73.07;93828.44;5032242;28;20571;-80
2023/03/08 00:51:05;;;;;;;30.37;15.80;;;;;;;7.81;73.86;93843.06;5031430;28;20237;-80
2023/03/08 00:53:32;;;;;;;31.80;16.63;;;;;;;7.70;73.54;93831.69;5031719;28;20653;-80
2023/03/08 00:56:03;;;;;;;29.27;16.60;;;;;;;7.67;74.15;93842.47;5036389;28;20191;-84
2023/03/08 00:58:31;;;;;;;36.77;17.90;;;;;;;7.50;74.54;93833.75;5041855;28;20183;-84
2023/03/08 01:01:15;;;;;;;35.87;18.60;;;;;;;7.56;74.38;93845.75;5032756;28;20777;-81
2023/03/08 01:03:43;;;;;;;35.40;17.27;;;;;;;7.68;74.58;93841.44;5031778;28;20210;-81
2023/03/08 01:06:13;;;;;;;30.87;16.97;;;;;;;7.69;74.87;93837.84;5031818;28;20194;-81
2023/03/08 01:08:40;;;;;;;34.50;17.03;;;;;;;7.72;74.47;93849.53;5031908;28;20897;-81
2023/03/08 01:11:16;;;;;;;33.83;16.87;;;;;;;7.64;74.88;93850.66;5031006;28;20291;-78
2023/03/08 01:13:43;;;;;;;36.13;18.33;;;;;;;7.57;74.71;93846.56;5031039;28;20175;-80
2023/03/08 01:16:15;;;;;;;34.33;17.17;;;;;;;7.56;74.78;93829.50;5031748;28;20222;-79
2023/03/08 01:18:42;;;;;;;34.60;17.17;;;;;;;7.48;75.03;93830.56;5033881;28;20194;-79
2023/03/08 01:21:11;;;;;;;39.67;17.10;;;;;;;7.56;75.02;93843.19;5031615;28;20691;-79
2023/03/08 01:23:37;;;;;;;37.23;18.50;;;;;;;7.53;75.90;93841.06;5032157;28;20203;-79
2023/03/08 01:26:06;;;;;;;34.00;18.87;;;;;;;7.48;75.49;93840.09;5031059;28;20665;-79
2023/03/08 01:28:35;;;;;;;37.20;18.53;;;;;;;7.40;76.29;93836.84;5031984;28;20198;-82
2023/03/08 01:31:03;;;;;;;37.73;16.93;;;;;;;7.41;75.40;93848.75;5032041;28;20207;-84
2023/03/08 01:33:30;;;;;;;37.53;16.03;;;;;;;7.34;75.85;93839.50;5031648;28;20365;-83
2023/03/08 01:35:56;;;;;;;30.67;14.37;;;;;;;7.34;75.33;93844.66;5032713;28;20202;-82
2023/03/08 01:38:24;;;;;;;33.63;16.80;;;;;;;7.32;75.28;93842.31;5031118;28;20225;-82
2023/03/08 01:40:56;;;;;;;39.57;17.73;;;;;;;7.29;75.90;93844.53;5031327;28;20195;-82
2023/03/08 01:43:25;;;;;;;37.97;16.40;;;;;;;7.32;76.04;93846.69;5031853;28;20195;-83
2023/03/08 01:46:25;;;;;;;32.83;16.17;;;;;;;7.24;76.73;93855.50;5031504;28;20254;-81
2023/03/08 01:48:57;;;;;;;37.70;16.40;;;;;;;7.18;77.29;93856.41;5029234;28;20202;-82
2023/03/08 01:51:30;;;;;;;39.47;16.90;;;;;;;7.15;77.62;93851.66;5032338;28;20289;-82
2023/03/08 01:53:59;;;;;;;40.97;18.73;;;;;;;7.12;77.84;93854.69;5030982;28;20183;-82
2023/03/08 01:56:27;;;;;;;40.40;17.23;;;;;;;7.09;78.11;93844.78;5031409;28;20199;-79
2023/03/08 01:58:55;;;;;;;39.93;17.67;;;;;;;7.10;78.37;93850.75;5031608;28;20664;-81
2023/03/08 02:01:24;;;;;;;35.17;16.43;;;;;;;7.03;78.18;93843.06;5031926;28;20202;-81
2023/03/08 02:03:51;;;;;;;33.93;16.50;;;;;;;7.04;78.61;93843.84;5031452;28;20210;-80
2023/03/08 02:06:36;;;;;;;33.10;17.57;;;;;;;6.91;78.73;93831.06;5031323;28;20669;-81
2023/03/08 02:09:04;;;;;;;32.70;17.70;;;;;;;6.87;79.21;93851.34;5032154;28;20195;-80
2023/03/08 02:11:33;;;;;;;33.57;16.67;;;;;;;6.84;79.19;93851.78;5033031;28;20201;-80
2023/03/08 02:14:01;;;;;;;34.40;16.10;;;;;;;6.68;79.84;93819.59;5034651;28;20198;-83
2023/03/08 02:16:29;;;;;;;37.93;16.80;;;;;;;6.69;79.93;93816.03;5035537;28;20191;-83
2023/03/08 02:18:57;;;;;;;32.47;16.43;;;;;;;6.88;79.70;93841.81;5034337;28;20194;-82
2023/03/08 02:21:25;;;;;;;30.60;15.23;;;;;;;6.90;79.61;93848.34;5033669;28;20278;-83
2023/03/08 02:23:54;;;;;;;26.50;14.70;;;;;;;6.90;79.77;93852.75;5033807;28;20214;-83
2023/03/08 02:26:21;;;;;;;29.20;16.27;;;;;;;6.87;79.32;93840.25;5036193;28;20201;-79
2023/03/08 02:28:48;;;;;;;34.97;16.60;;;;;;;6.79;79.31;93839.53;5034609;28;20190;-80
2023/03/08 02:31:15;;;;;;;36.30;18.03;;;;;;;6.84;78.72;93844.84;5034744;28;20665;-81
2023/03/08 02:33:42;;;;;;;34.93;17.87;;;;;;;6.80;79.25;93856.63;5035193;28;20201;-80
2023/03/08 02:36:10;;;;;;;28.93;16.37;;;;;;;6.62;79.62;93845.47;5034892;28;20572;-82
2023/03/08 02:38:37;;;;;;;32.70;17.27;;;;;;;6.59;80.50;93857.00;5034252;28;20645;-82
2023/03/08 02:41:06;;;;;;;32.43;18.47;;;;;;;6.47;81.33;93847.59;5034531;28;20673;-83
2023/03/08 02:43:33;;;;;;;31.23;16.87;;;;;;;6.41;82.72;93858.75;5035368;28;20199;-83
2023/03/08 02:45:59;;;;;;;32.97;17.80;;;;;;;6.45;82.57;93859.91;5034398;28;20642;-83
2023/03/08 02:48:26;;;;;;;26.87;16.87;;;;;;;6.45;81.54;93865.88;5034148;28;20202;-83
2023/03/08 02:50:53;;;;;;;32.47;17.40;;;;;;;6.49;81.76;93864.47;5034451;28;20330;-82
2023/03/08 02:53:20;;;;;;;30.37;16.30;;;;;;;6.47;81.99;93865.66;5033895;28;20554;-81
2023/03/08 02:55:47;;;;;;;31.90;15.87;;;;;;;6.25;82.05;93867.84;5034213;28;20194;-82
2023/03/08 02:58:15;;;;;;;34.20;15.00;;;;;;;6.15;84.19;93873.44;5022280;28;20215;-80
2023/03/08 03:00:43;;;;;;;26.40;14.70;;;;;;;6.10;84.75;93877.66;5014403;28;20199;-80
2023/03/08 03:03:09;;;;;;;32.63;15.63;;;;;;;6.13;85.74;93869.50;5013678;28;20196;-80
2023/03/08 03:05:41;;;;;;;31.40;15.37;;;;;;;6.17;85.67;93863.72;5013512;28;20920;-80
2023/03/08 03:08:08;;;;;;;30.97;15.03;;;;;;;6.23;85.06;93873.19;5014547;28;20564;-81
2023/03/08 03:10:35;;;;;;;24.73;14.03;;;;;;;6.19;85.79;93871.25;5014098;28;20195;-80
2023/03/08 03:13:02;;;;;;;26.17;14.20;;;;;;;6.18;84.97;93875.63;5013835;28;20199;-79
2023/03/08 03:15:30;;;;;;;27.07;14.20;;;;;;;6.19;85.34;93879.78;5013383;28;20195;-79
2023/03/08 03:17:57;;;;;;;27.33;14.40;;;;;;;6.21;85.60;93867.47;5013794;28;20313;-80
2023/03/08 03:20:24;;;;;;;27.13;15.33;;;;;;;6.17;85.20;93879.22;5025660;28;20198;-80
2023/03/08 03:22:51;;;;;;;30.53;14.73;;;;;;;6.09;85.34;93886.41;5033303;28;20249;-79
2023/03/08 03:25:18;;;;;;;27.43;14.23;;;;;;;6.04;86.23;93884.44;5033405;28;20194;-78
2023/03/08 03:27:45;;;;;;;26.73;14.13;;;;;;;6.05;85.87;93882.66;5033057;28;20213;-79
2023/03/08 03:30:12;;;;;;;26.73;14.67;;;;;;;6.00;85.84;93887.66;5033097;28;20198;-78
2023/03/08 03:32:41;;;;;;;27.27;14.43;;;;;;;5.94;86.27;93893.66;5033232;28;20205;-79
2023/03/08 03:35:08;;;;;;;31.03;14.67;;;;;;;5.96;86.77;93891.66;5031905;28;20198;-80
2023/03/08 03:37:35;;;;;;;29.23;14.40;;;;;;;6.00;86.91;93901.31;5032249;28;20229;-78
2023/03/08 03:40:02;;;;;;;28.40;14.47;;;;;;;6.00;86.36;93893.59;5032548;28;20285;-78
2023/03/08 03:42:29;;;;;;;27.83;14.83;;;;;;;6.10;86.27;93893.13;5033557;28;20196;-79
2023/03/08 03:44:56;;;;;;;27.00;14.47;;;;;;;6.17;85.82;93899.06;5032750;28;20202;-78
2023/03/08 03:47:22;;;;;;;27.57;14.60;;;;;;;6.14;87.06;93902.03;5032992;28;20203;-78
2023/03/08 03:49:51;;;;;;;24.50;14.30;;;;;;;6.14;86.69;93899.47;5027078;28;20241;-80
2023/03/08 03:52:18;;;;;;;28.40;15.83;;;;;;;5.97;86.79;93888.06;5013608;28;20195;-82
2023/03/08 03:54:54;;;;;;;33.53;15.40;;;;;;;6.00;86.67;93882.50;5013245;28;20704;-82
2023/03/08 03:57:23;;;;;;;43.43;20.33;;;;;;;6.06;87.28;93899.72;5013277;28;20233;-81
2023/03/08 03:59:49;;;;;;;53.80;25.70;;;;;;;6.13;87.16;93898.66;5013220;28;20736;-81
2023/03/08 04:02:16;;;;;;;54.07;28.60;;;;;;;6.08;87.18;93906.25;5013171;28;20546;-81
2023/03/08 04:04:43;;;;;;;58.03;28.00;;;;;;;6.06;87.23;93900.50;5012891;28;20677;-81
2023/03/08 04:07:12;;;;;;;54.47;25.03;;;;;;;6.05;87.91;93904.09;5013203;28;20214;-80
2023/03/08 04:09:47;;;;;;;59.13;25.00;;;;;;;5.98;87.19;93903.31;5012820;28;20289;-80
2023/03/08 04:12:14;;;;;;;57.50;24.90;;;;;;;5.95;88.04;93901.16;5012679;28;20203;-80
2023/03/08 04:14:43;;;;;;;42.07;21.03;;;;;;;5.86;88.42;93904.22;5012616;28;20643;-80
2023/03/08 04:17:10;;;;;;;48.00;24.13;;;;;;;5.95;88.98;93905.53;5012902;28;20262;-84
2023/03/08 04:19:37;;;;;;;48.03;24.10;;;;;;;5.97;88.83;93908.72;5012322;28;20669;-82
2023/03/08 04:22:04;;;;;;;50.90;21.37;;;;;;;5.94;88.78;93909.13;5011798;28;20195;-81
2023/03/08 04:24:45;;;;;;;45.27;21.40;;;;;;;5.88;89.45;93913.31;5012607;28;20203;-81
2023/03/08 04:27:12;;;;;;;49.57;21.77;;;;;;;5.85;88.34;93908.59;5012143;28;20195;-80
2023/03/08 04:29:38;;;;;;;53.27;24.43;;;;;;;5.88;88.90;93922.84;5012243;28;20607;-80
2023/03/08 04:32:06;;;;;;;49.37;25.13;;;;;;;5.86;88.21;93920.44;5011922;28;20195;-80
2023/03/08 04:34:32;;;;;;;52.80;26.40;;;;;;;5.88;89.01;93917.69;5011799;28;20199;-80
2023/03/08 04:36:59;;;;;;;49.83;26.70;;;;;;;5.88;88.53;93909.94;5011630;28;20204;-82
2023/03/08 04:39:26;;;;;;;50.10;26.37;;;;;;;5.96;88.57;93920.00;5011909;28;20661;-82
2023/03/08 04:41:54;;;;;;;55.70;25.73;;;;;;;6.02;87.58;93912.25;5012674;28;20207;-80
2023/03/08 04:44:21;;;;;;;49.97;25.93;;;;;;;6.04;88.22;93912.81;5011387;28;20733;-81
2023/03/08 04:46:48;;;;;;;48.83;25.37;;;;;;;6.01;88.11;93913.22;5011293;28;20202;-82
2023/03/08 04:49:15;;;;;;;65.07;27.53;;;;;;;6.00;87.86;93913.44;5013138;28;20249;-82
2023/03/08 04:51:42;;;;;;;55.67;25.47;;;;;;;5.99;88.59;93919.59;5032662;28;20198;-81
2023/03/08 04:54:08;;;;;;;54.17;27.33;;;;;;;6.02;87.93;93929.50;5032133;28;20194;-81
2023/03/08 04:56:35;;;;;;;60.60;26.37;;;;;;;5.95;88.75;93926.94;5032073;28;20215;-81
2023/03/08 04:59:03;;;;;;;57.73;26.17;;;;;;;5.96;88.71;93930.31;5032215;28;20222;-81
2023/03/08 05:01:30;;;;;;;48.03;25.60;;;;;;;5.97;88.42;93926.75;5032723;28;20198;-81
2023/03/08 05:03:57;;;;;;;47.73;23.93;;;;;;;5.83;89.80;93926.00;5036574;28;20261;-80
2023/03/08 05:06:26;;;;;;;51.37;25.40;;;;;;;5.87;88.96;93934.13;5038624;28;20198;-80
2023/03/08 05:08:53;;;;;;;52.53;25.20;;;;;;;5.84;89.83;93930.16;5032714;28;20226;-79
2023/03/08 05:11:22;;;;;;;43.57;22.97;;;;;;;5.91;89.23;93937.91;5032586;28;20707;-79
2023/03/08 05:13:49;;;;;;;58.53;25.53;;;;;;;5.95;89.36;93952.72;5032061;28;20198;-81
2023/03/08 05:16:17;;;;;;;50.97;24.70;;;;;;;5.93;88.32;93946.22;5031432;28;20191;-82
2023/03/08 05:18:44;;;;;;;47.67;24.80;;;;;;;5.92;88.52;93945.41;5033974;28;20234;-90
2023/03/08 05:21:13;;;;;;;51.00;25.73;;;;;;;5.92;89.29;93948.00;5032332;28;20890;-86
2023/03/08 05:23:39;;;;;;;57.63;25.30;;;;;;;6.01;89.16;93958.84;5032255;28;20289;-86
2023/03/08 05:26:08;;;;;;;56.20;25.63;;;;;;;5.88;89.38;93946.84;5033842;28;20693;-87
2023/03/08 05:28:37;;;;;;;53.17;26.77;;;;;;;5.91;90.05;93953.38;5032065;28;20240;-86
2023/03/08 05:31:05;;;;;;;52.57;25.83;;;;;;;5.81;89.46;93929.78;5032488;28;21041;-88
2023/03/08 05:33:33;;;;;;;59.83;29.70;;;;;;;5.76;89.88;93938.13;5032768;28;20223;-88
2023/03/08 05:36:00;;;;;;;53.13;28.43;;;;;;;5.97;89.80;93965.44;5032523;28;20572;-88
2023/03/08 05:38:28;;;;;;;62.97;28.60;;;;;;;6.03;89.59;93980.09;5033514;28;20718;-88
2023/03/08 05:40:55;;;;;;;70.70;30.53;;;;;;;6.06;89.81;93972.69;5032677;28;20224;-87
2023/03/08 05:43:22;;;;;;;58.93;27.33;;;;;;;6.13;89.77;93976.06;5032456;28;20673;-89
2023/03/08 05:45:56;;;;;;;46.43;22.00;;;;;;;6.07;89.45;93978.66;5032759;28;20330;-89
2023/03/08 05:48:23;;;;;;;51.73;27.13;;;;;;;6.13;89.93;93988.16;5036758;28;20679;-88
2023/03/08 05:50:52;;;;;;;56.87;27.07;;;;;;;6.12;90.45;93983.97;5036005;28;20643;-87
2023/03/08 05:53:19;;;;;;;50.57;25.50;;;;;;;6.08;90.44;93982.81;5036100;28;20206;-91
2023/03/08 05:55:46;;;;;;;49.53;25.33;;;;;;;6.10;90.63;93985.97;5037816;28;20191;-89
2023/03/08 05:58:13;;;;;;;54.70;27.47;;;;;;;6.16;90.82;93996.28;5039639;28;20215;-92
2023/03/08 06:00:40;;;;;;;58.50;28.87;;;;;;;6.27;90.52;93994.81;5036126;28;20215;-89
2023/03/08 06:03:07;;;;;;;52.93;28.30;;;;;;;6.32;89.76;93992.38;5036455;28;20201;-86
2023/03/08 06:05:34;;;;;;;54.07;27.17;;;;;;;6.29;90.58;93990.25;5035822;28;20214;-86
2023/03/08 06:08:02;;;;;;;67.03;29.23;;;;;;;6.18;89.87;93963.31;5036095;28;20191;-87
2023/03/08 06:10:30;;;;;;;63.57;29.17;;;;;;;6.31;89.85;93996.00;5035568;28;20191;-85
2023/03/08 06:12:58;;;;;;;67.60;31.17;;;;;;;6.46;89.29;93999.06;5035224;28;20579;-89
2023/03/08 06:15:25;;;;;;;56.07;30.53;;;;;;;6.46;89.41;93980.22;5035175;28;20198;-88
2023/03/08 06:17:53;;;;;;;56.00;29.77;;;;;;;6.64;89.75;94013.81;5035432;28;20234;-89
2023/03/08 06:20:20;;;;;;;56.33;27.53;;;;;;;6.42;89.00;93979.03;5019966;28;20226;-89
2023/03/08 06:22:47;;;;;;;55.33;25.73;;;;;;;6.68;89.20;94020.16;5035787;28;20211;-89
2023/03/08 06:25:16;;;;;;;58.63;26.17;;;;;;;6.69;89.86;94014.00;5035767;28;20195;-90
2023/03/08 06:27:43;;;;;;;42.90;23.03;;;;;;;6.82;89.45;94014.69;5038147;28;20210;-90
2023/03/08 06:30:11;;;;;;;41.27;20.27;;;;;;;6.73;89.18;93997.88;5036155;28;20187;-89
2023/03/08 06:32:38;;;;;;;43.57;22.17;;;;;;;6.38;89.32;93946.94;5037037;28;20205;-89
2023/03/08 06:35:06;;;;;;;53.23;19.97;;;;;;;6.93;88.95;94025.31;5035527;28;20272;-88
2023/03/08 06:37:34;;;;;;;46.13;18.40;;;;;;;6.98;88.42;94022.91;5036064;28;20701;-87
2023/03/08 06:40:02;;;;;;;43.83;17.60;;;;;;;6.79;87.89;93994.44;5034920;28;20226;-87
2023/03/08 06:42:30;;;;;;;31.30;14.43;;;;;;;6.81;87.33;94002.78;5035337;28;20222;-87
2023/03/08 06:44:57;;;;;;;32.20;14.70;;;;;;;7.22;86.13;94048.72;5034654;28;20198;-87
2023/03/08 06:47:24;;;;;;;27.30;13.80;;;;;;;7.23;85.70;94047.75;5035843;28;20191;-87
2023/03/08 06:49:52;;;;;;;27.50;13.30;;;;;;;7.25;85.85;94057.84;5034423;28;20234;-88
2023/03/08 06:52:19;;;;;;;25.77;12.63;;;;;;;7.23;85.98;94041.78;5034574;28;20548;-88
2023/03/08 06:54:46;;;;;;;29.43;14.70;;;;;;;7.38;85.05;94058.53;5035037;28;20191;-87
2023/03/08 06:57:12;;;;;;;27.20;13.90;;;;;;;7.49;84.09;94058.84;5038703;28;20568;-87
2023/03/08 06:59:41;;;;;;;34.33;14.27;;;;;;;7.26;83.49;94020.69;5041342;28;20219;-86
2023/03/08 07:02:09;;;;;;;24.93;12.83;;;;;;;7.70;82.68;94077.34;5034349;28;20622;-88
2023/03/08 07:04:36;;;;;;;27.00;12.60;;;;;;;7.72;82.34;94077.91;5034078;28;20283;-87
2023/03/08 07:07:03;;;;;;;28.10;12.77;;;;;;;7.75;81.42;94068.91;5035361;28;20253;-86
2023/03/08 07:09:30;;;;;;;27.73;13.00;;;;;;;7.85;81.10;94069.22;5034189;28;20194;-87
2023/03/08 07:11:56;;;;;;;25.27;14.27;;;;;;;7.93;81.17;94079.28;5033448;28;20194;-87
2023/03/08 07:14:23;;;;;;;31.67;13.83;;;;;;;8.09;80.37;94075.31;5033448;28;20195;-86
2023/03/08 07:16:51;;;;;;;24.33;12.87;;;;;;;8.18;79.10;94067.03;5033497;28;20195;-86
2023/03/08 07:19:18;;;;;;;21.07;12.57;;;;;;;8.35;78.66;94080.19;5033765;28;20230;-87
2023/03/08 07:21:45;;;;;;;28.40;13.50;;;;;;;8.12;78.39;94017.94;5033891;28;20198;-86
2023/03/08 07:24:12;;;;;;;24.23;12.53;;;;;;;8.60;77.70;94080.09;5034042;28;20227;-86
2023/03/08 07:29:29;;;;;;;16.93;9.23;;;;;;;8.81;76.40;94064.03;5035789;28;20322;-84
2023/03/08 07:31:57;;;;;;;23.03;9.57;;;;;;;8.85;75.68;94060.00;5036789;28;20201;-86
2023/03/08 07:34:24;;;;;;;17.60;9.87;;;;;;;9.17;75.22;94089.03;5047243;28;20202;-85
2023/03/08 07:36:51;;;;;;;20.67;10.93;;;;;;;9.10;73.86;94068.41;5036960;28;20681;-85
2023/03/08 07:39:18;;;;;;;25.47;11.47;;;;;;;9.18;73.44;94055.09;5039166;28;20318;-86
2023/03/08 07:41:44;;;;;;;23.67;11.43;;;;;;;9.50;73.41;94082.31;5034543;28;20305;-85
2023/03/08 07:44:11;;;;;;;28.10;10.67;;;;;;;9.52;72.54;94062.09;5034271;28;20203;-85
2023/03/08 07:46:38;;;;;;;20.43;10.67;;;;;;;9.52;71.04;94064.69;5034534;28;20187;-86
2023/03/08 07:49:09;;;;;;;19.20;10.47;;;;;;;9.72;72.25;94089.53;5035769;28;20197;-87
2023/03/08 07:51:36;;;;;;;19.30;10.53;;;;;;;9.63;71.21;94050.16;5044230;28;20271;-88
2023/03/08 07:54:03;;;;;;;20.97;10.63;;;;;;;9.63;71.72;94063.94;5044174;28;20684;-88
2023/03/08 07:56:30;;;;;;;24.20;11.03;;;;;;;9.95;70.54;94079.94;5043063;28;20198;-87
2023/03/08 07:58:57;;;;;;;22.97;11.63;;;;;;;9.85;69.57;94045.16;5044240;28;20242;-87
2023/03/08 08:01:24;;;;;;;19.83;11.30;;;;;;;10.20;69.22;94093.47;5045259;28;20225;-86
2023/03/08 08:03:51;;;;;;;20.60;11.23;;;;;;;9.85;67.78;94042.56;5045352;28;20226;-86
2023/03/08 08:06:19;;;;;;;21.23;10.67;;;;;;;10.14;67.24;94072.81;5044001;28;20191;-85
2023/03/08 08:08:46;;;;;;;18.57;9.87;;;;;;;10.23;68.61;94067.03;5039334;28;20222;-83
2023/03/08 08:11:14;;;;;;;17.90;10.00;;;;;;;10.27;67.80;94067.38;5033873;28;20195;-84
2023/03/08 08:13:41;;;;;;;16.77;9.33;;;;;;;10.47;67.52;94088.53;5037438;28;20203;-84
2023/03/08 08:16:08;;;;;;;17.67;10.30;;;;;;;10.58;65.27;94089.50;5035969;28;20195;-87
2023/03/08 08:18:36;;;;;;;18.37;10.10;;;;;;;10.31;66.32;94059.88;5032842;28;20575;-87
2023/03/08 08:21:04;;;;;;;24.97;10.37;;;;;;;10.71;65.39;94103.00;5052725;28;20198;-91
2023/03/08 08:23:32;;;;;;;18.83;9.63;;;;;;;10.40;64.40;94041.13;5053522;28;20222;-93
2023/03/08 08:26:00;;;;;;;14.10;9.60;;;;;;;10.70;64.81;94103.25;5045954;28;20199;-79
2023/03/08 08:28:27;;;;;;;19.83;10.07;;;;;;;10.81;65.46;94099.81;5032198;28;20203;-80
2023/03/08 08:30:59;;;;;;;15.80;9.07;;;;;;;10.97;64.46;94106.84;5020138;28;20641;-80
2023/03/08 08:33:27;;;;;;;17.53;8.97;;;;;;;11.15;64.59;94116.25;5028945;28;20195;-80
2023/03/08 08:35:54;;;;;;;19.83;8.80;;;;;;;11.30;65.16;94108.72;5030683;28;20207;-80
2023/03/08 08:38:21;;;;;;;19.43;9.53;;;;;;;11.55;63.33;94105.72;5031186;28;20198;-80
2023/03/08 08:40:49;;;;;;;22.33;8.70;;;;;;;11.73;63.15;94105.50;5023188;28;20191;-80
2023/03/08 08:43:16;;;;;;;18.43;9.07;;;;;;;11.94;61.49;94110.00;5027225;28;20194;-84
2023/03/08 08:45:44;;;;;;;15.13;8.83;;;;;;;12.02;58.90;94108.78;5033880;28;20191;-91
2023/03/08 08:48:11;;;;;;;17.70;8.60;;;;;;;12.02;59.46;94101.78;5033642;28;20643;-91
2023/03/08 08:50:38;;;;;;;20.20;9.57;;;;;;;12.14;58.79;94094.66;5035078;28;20218;-91
2023/03/08 08:53:05;;;;;;;19.87;9.60;;;;;;;12.24;59.48;94102.56;5032171;28;20882;-86
2023/03/08 08:55:32;;;;;;;18.97;9.67;;;;;;;12.28;59.56;94100.28;5032747;28;20219;-90
2023/03/08 08:58:01;;;;;;;23.30;9.50;;;;;;;12.19;58.76;94094.69;5034852;28;20205;-90
2023/03/08 09:00:29;;;;;;;23.40;9.33;;;;;;;12.34;59.07;94105.31;5032923;28;20224;-86
2023/03/08 09:02:56;;;;;;;17.83;9.23;;;;;;;12.10;58.40;94059.69;5033903;28;20227;-93
2023/03/08 09:05:23;;;;;;;21.83;10.23;;;;;;;12.39;57.22;94083.75;5033780;28;20669;-92
2023/03/08 09:10:51;;;;;;;18.93;10.03;;;;;;;11.78;58.60;94046.50;4958143;28;20296;-91
2023/03/08 09:13:40;;;;;;;19.77;10.40;;;;;;;12.08;59.01;94110.44;5035899;28;20203;-94
2023/03/08 09:16:17;;;;;;;19.40;10.00;;;;;;;12.06;59.01;94094.28;5046165;28;20204;-95
2023/03/08 09:18:45;;;;;;;18.80;9.97;;;;;;;11.82;58.94;94041.59;5040960;28;20210;-95
2023/03/08 09:21:13;;;;;;;26.30;10.07;;;;;;;12.12;59.06;94078.44;5040742;28;20285;-96
2023/03/08 09:23:41;;;;;;;21.67;10.67;;;;;;;12.02;58.58;94036.66;5042607;28;20206;-96
2023/03/08 09:26:17;;;;;;;23.40;11.07;;;;;;;12.23;58.06;94027.28;5041802;28;20675;-96
2023/03/08 09:28:53;;;;;;;25.50;11.63;;;;;;;12.64;57.31;94055.34;5044554;28;20205;-95
2023/03/08 09:31:44;;;;;;;31.43;11.47;;;;;;;12.89;55.84;94066.06;5043424;28;20194;-94
2023/03/08 09:34:21;;;;;;;22.83;10.67;;;;;;;13.04;55.59;94073.22;5051850;28;20195;-96
2023/03/08 09:36:48;;;;;;;21.47;10.80;;;;;;;13.20;55.19;94069.75;5043702;28;20207;-95
2023/03/08 09:39:19;;;;;;;30.77;12.33;;;;;;;13.26;55.03;94068.75;5028421;28;20230;-93
2023/03/08 09:41:55;;;;;;;27.57;11.50;;;;;;;13.69;54.34;94078.22;5022910;28;20200;-94
2023/03/08 09:45:07;;;;;;;26.47;11.80;;;;;;;13.97;53.50;94071.84;5019457;28;20194;-92
2023/03/08 09:47:42;;;;;;;20.67;10.83;;;;;;;14.14;52.12;94030.69;5028292;28;20711;-93
2023/03/08 09:50:37;;;;;;;27.53;11.50;;;;;;;14.66;50.10;94052.31;5039389;28;20226;-93
2023/03/08 09:53:11;;;;;;;23.33;10.53;;;;;;;15.22;49.75;94082.00;5048817;28;20243;-94
2023/03/08 09:55:45;;;;;;;25.80;11.50;;;;;;;15.73;48.09;94090.69;5044026;28;20194;-92
2023/03/08 09:58:20;;;;;;;20.93;10.30;;;;;;;15.98;46.68;94058.44;5032366;28;20202;-91
2023/03/08 10:00:49;;;;;;;22.83;9.47;;;;;;;16.07;46.08;94024.59;5018954;28;20242;-91
2023/03/08 10:03:39;;;;;;;16.73;9.20;;;;;;;16.69;45.54;94077.34;5017535;28;20205;-88
2023/03/08 10:06:11;;;;;;;18.33;8.33;;;;;;;16.83;44.67;94059.97;5021904;28;20651;-88
2023/03/08 10:08:48;;;;;;;16.87;8.40;;;;;;;17.24;44.46;94078.09;5035765;28;20217;-89
2023/03/08 10:11:21;;;;;;;19.80;9.17;;;;;;;17.35;43.93;94066.47;5035526;28;20569;-88
2023/03/08 10:13:50;;;;;;;16.83;8.23;;;;;;;17.28;43.29;94032.66;5036641;28;20214;-87
2023/03/08 10:16:22;;;;;;;18.97;7.40;;;;;;;17.76;42.82;94066.97;5035342;28;20195;-88
2023/03/08 10:18:52;;;;;;;25.47;7.40;;;;;;;17.72;42.09;94064.09;5035556;28;20203;-88
2023/03/08 10:21:21;;;;;;;20.30;7.27;;;;;;;17.70;41.92;94057.53;5036331;28;20191;-87
2023/03/08 10:23:57;;;;;;;10.97;6.50;;;;;;;18.05;41.58;94063.25;5038152;28;20252;-86
2023/03/08 10:26:25;;;;;;;12.10;7.00;;;;;;;18.27;40.95;94025.94;5047019;28;20808;-86
2023/03/08 10:28:52;;;;;;;12.07;6.55;;;;;;;18.72;40.80;94050.97;5047481;28;20274;-87
2023/03/08 10:31:24;;;;;;;12.68;5.93;;;;;;;18.92;39.54;94049.91;5034108;28;20206;-91
2023/03/08 10:33:58;;;;;;;12.68;5.60;;;;;;;18.44;38.56;94022.88;5048283;28;20191;-90
2023/03/08 10:36:25;;;;;;;12.70;6.30;;;;;;;18.16;38.72;94058.69;5036676;28;20209;-87
2023/03/08 10:39:01;;;;;;;14.00;6.70;;;;;;;16.87;41.27;94060.22;5035074;28;20209;-88
2023/03/08 10:41:31;;;;;;;12.67;6.30;;;;;;;16.40;42.32;94053.56;5030181;28;20203;-88
2023/03/08 10:43:59;;;;;;;10.57;5.70;;;;;;;16.36;42.41;94049.16;5018948;28;20206;-87
2023/03/08 10:46:31;;;;;;;8.23;4.97;;;;;;;16.55;42.27;94052.75;5035293;28;20217;-86
2023/03/08 10:49:08;;;;;;;10.10;4.10;;;;;;;16.71;40.72;94043.00;5034575;28;20187;-86
2023/03/08 10:51:35;;;;;;;6.53;4.00;;;;;;;16.68;41.17;94038.28;5034130;28;20187;-84
2023/03/08 10:54:05;;;;;;;7.63;4.00;;;;;;;16.64;41.77;94040.66;5034586;28;20191;-87
2023/03/08 10:56:37;;;;;;;8.13;3.90;;;;;;;16.30;41.90;94047.59;5037225;28;20210;-86
2023/03/08 10:59:06;;;;;;;8.10;4.07;;;;;;;15.96;42.44;94004.72;5034689;28;20233;-87
2023/03/08 11:01:47;;;;;;;7.20;3.80;;;;;;;16.12;42.52;94032.44;5034450;28;20191;-85
2023/03/08 11:04:16;;;;;;;7.53;3.70;;;;;;;15.92;43.32;94035.91;5020638;28;20195;-86
2023/03/08 11:06:43;;;;;;;8.33;3.50;;;;;;;16.10;42.39;94029.31;5034536;28;20191;-87
2023/03/08 11:09:21;;;;;;;11.53;4.07;;;;;;;15.70;43.11;94010.00;5036916;28;20183;-87
2023/03/08 11:11:48;;;;;;;11.70;4.10;;;;;;;15.74;42.80;94028.59;5033352;28;20224;-86
2023/03/08 11:14:15;;;;;;;6.27;3.80;;;;;;;15.87;42.02;94014.97;5033989;28;20203;-86
2023/03/08 11:16:51;;;;;;;4.67;2.70;;;;;;;16.00;40.70;94009.13;5023284;28;20222;-88
2023/03/08 11:19:42;;;;;;;15.37;4.67;;;;;;;16.26;42.98;93984.41;5016764;28;20749;-88
2023/03/08 11:22:23;;;;;;;14.07;4.87;;;;;;;16.73;42.81;93983.94;5015683;28;20203;-90
2023/03/08 11:25:03;;;;;;;12.67;4.30;;;;;;;17.46;41.82;93981.28;5014520;28;20893;-90
2023/03/08 11:27:46;;;;;;;6.80;3.50;;;;;;;18.30;38.41;93993.00;5019753;28;20257;-89
2023/03/08 11:30:22;;;;;;;4.57;2.10;;;;;;;18.35;35.35;93990.34;5014762;28;20199;-91
2023/03/08 11:33:10;;;;;;;2.43;1.97;;;;;;;18.23;35.54;93968.91;5026671;28;20214;-90
2023/03/08 11:35:46;;;;;;;3.93;2.23;;;;;;;17.94;36.00;93982.91;5034042;28;20209;-87
2023/03/08 11:38:20;;;;;;;4.67;2.20;;;;;;;17.13;36.24;93922.47;5034805;28;20202;-91
2023/03/08 11:40:56;;;;;;;5.77;2.63;;;;;;;17.05;37.02;93969.53;5034836;28;20275;-89